NCAR-RAP Real-Time Weather Data

Output produced by METARs form (19 June 2019  11:13 UTC)
found at http://weather.rap.ucar.edu/surface/
 
KHVR 191053Z AUTO 17007KT 10SM FEW080 13/11 A2974 RMK AO2 SLP058 T01330111
KHVR 190953Z AUTO 18009KT 10SM BKN085 14/12 A2977 RMK AO2 RAE25 SLP070 P0001 T01390122
KHVR 190853Z AUTO 24008KT 10SM -RA OVC090 14/13 A2982 RMK AO2 WSHFT 0754 SLP086 P0003 60005 T01440128 50006
KHVR 190808Z AUTO 28010KT 10SM -RA SCT070 OVC080 14/12 A2982 RMK AO2 WSHFT 0754 LTG DSNT S P0002 T01440122
KHVR 190753Z AUTO 26008KT 8SM VCTS -RA BKN070 OVC090 18/09 A2982 RMK AO2 LTG DSNT S AND W RAB29 SLP088 P0002 T01780089
KHVR 190707Z AUTO 31003KT 10SM FEW100 15/12 A2981 RMK AO2 LTG DSNT SW-NW T01500117
KHVR 190653Z AUTO 33004KT 10SM VCTS SCT100 14/12 A2981 RMK AO2 LTG DSNT SW AND W SLP090 T01440117 402670133
KHVR 190637Z AUTO 31003KT 10SM VCTS CLR 14/12 A2980 RMK AO2 LTG DSNT S AND W T01440117
KHVR 190553Z AUTO 28003KT 10SM CLR 15/12 A2980 RMK AO2 LTG DSNT W SLP078 T01500117 10244 20150 58008
KHVR 190453Z AUTO 22009KT 10SM BKN100 17/12 A2982 RMK AO2 SLP084 T01670122
KHVR 190353Z AUTO VRB03KT 10SM CLR 17/11 A2981 RMK AO2 LTG DSNT SW AND W SLP082 T01670106
KHVR 190253Z AUTO 09009KT 10SM CLR 18/09 A2983 RMK AO2 SLP089 T01830094 51009
KHVR 190153Z AUTO 10013KT 10SM CLR 19/11 A2982 RMK AO2 PK WND 07026/0101 SLP088 T01890106
KHVR 190053Z AUTO 10SM BKN090 BKN110 24/11 A2981 RMK AO2 LTG DSNT S AND SW SLP079 T02440106
KHVR 190041Z AUTO 00000KT 10SM VCTS SCT085 BKN110 23/12 A2980 RMK AO2 LTG DSNT E AND SW T02330122
KHVR 182353Z AUTO 22013G20KT 10SM CLR 24/12 A2980 RMK AO2 LTG DSNT NE AND E SLP077 60002 T02390117 10261 20167 56013
KHVR 182253Z AUTO 22015KT 10SM FEW060 SCT080 BKN110 24/12 A2980 RMK AO2 LTG DSNT N AND NE SLP080 T02390117
KHVR 182153Z AUTO 24011KT 10SM CLR 25/11 A2982 RMK AO2 SLP086 T02500106
KHVR 182053Z AUTO 20009KT 10SM CLR 23/13 A2984 RMK AO2 SLP093 60002 T02280128 58004
KHVR 181953Z AUTO 26004KT 10SM FEW024 SCT090 SCT100 19/13 A2985 RMK AO2 LTG DSNT SE RAE44 TSE03 SLP100 P0002 T01890128
KHVR 181909Z AUTO 28007KT 10SM -RA OVC090 17/13 A2988 RMK AO2 LTG DSNT E-S TSE03 P0000 T01670133
KHVR 181853Z AUTO 31012KT 10SM -TSRA BKN080 OVC090 17/13 A2988 RMK AO2 PK WND 29032/1823 LTG DSNT SE AND S RAB18E34B47 TSB36 SLP112 P0000 T01670133
KHVR 181842Z AUTO 30017G23KT 10SM TS FEW060 OVC080 18/13 A2988 RMK AO2 PK WND 29032/1823 LTG DSNT SE-SW RAB18E34 TSB36 P0000 T01780128
KHVR 181753Z AUTO 24011G19KT 10SM BKN095 25/08 A2985 RMK AO2 LTG DSNT SE SLP094 T02500083 10267 20150 56015
KHVR 181653Z AUTO 23011KT 10SM CLR 24/09 A2987 RMK AO2 SLP102 T02390094